Time;durP1;ratioP1;P1;durP2;ratioP2;P2;SDS_P1;SDS_P2;PMS_P1;PMS_P2;Temp;Humidity;BMP_temperature;BMP_pressure;BME280_temperature;BME280_humidity;BME280_pressure;Samples;Min_cycle;Max_cycle;Signal;HPM_P1;HPM_P2
2022/01/20 00:01:38;;;;;;;6.57;4.13;;;2.40;99.90;1.40;98660;;;;603846;235;24080;-79
2022/01/20 00:03:47;;;;;;;3.83;3.50;;;2.30;99.90;1.40;98654;;;;604001;232;24045;-80
2022/01/20 00:28:08;;;;;;;4.40;3.53;;;2.40;99.90;1.40;98595;;;;591842;242;24081;-78
2022/01/20 00:30:34;;;;;;;3.97;3.23;;;2.40;99.90;1.40;98591;;;;584278;240;24091;-78
2022/01/20 00:32:59;;;;;;;4.33;3.23;;;2.40;99.90;1.50;98585;;;;589573;240;24037;-78
2022/01/20 00:35:25;;;;;;;3.20;2.90;;;2.40;99.90;1.50;98584;;;;589900;240;24022;-77
2022/01/20 00:37:48;;;;;;;4.23;2.70;;;2.50;99.90;1.50;98585;;;;590018;240;24040;-78
2022/01/20 00:40:17;;;;;;;3.97;2.50;;;2.50;99.90;1.60;98579;;;;590296;240;24047;-78
2022/01/20 00:42:44;;;;;;;4.27;3.50;;;2.50;99.90;1.60;98580;;;;598510;240;24071;-78
2022/01/20 00:45:10;;;;;;;3.93;2.33;;;2.60;99.90;1.60;98575;;;;590161;240;24034;-79
2022/01/20 00:47:38;;;;;;;3.23;2.23;;;2.60;99.90;1.70;98564;;;;591901;239;24027;-78
2022/01/20 00:50:07;;;;;;;1.83;1.53;;;2.70;99.90;1.70;98558;;;;586525;239;24027;-78
2022/01/20 00:52:35;;;;;;;4.20;3.30;;;2.70;99.90;1.70;98552;;;;591455;239;24058;-79
2022/01/20 00:55:06;;;;;;;3.87;3.13;;;2.70;99.90;1.80;98561;;;;591184;239;24132;-78
2022/01/20 00:57:34;;;;;;;4.97;2.17;;;2.70;99.90;1.80;98553;;;;585984;239;24108;-78
2022/01/20 00:59:59;;;;;;;4.23;3.07;;;2.70;99.90;1.80;98535;;;;590812;239;24071;-78
2022/01/20 01:02:27;;;;;;;6.23;3.17;;;2.80;99.90;1.90;98543;;;;591100;239;24031;-78
2022/01/20 01:04:55;;;;;;;5.40;2.40;;;2.80;99.90;1.90;98537;;;;591111;239;24024;-78
2022/01/20 01:07:45;;;;;;;5.80;2.93;;;2.90;99.90;2.00;98536;;;;591108;238;24094;-78
2022/01/20 01:09:53;;;;;;;8.40;3.50;;;2.90;99.90;2.00;98528;;;;595736;237;24075;-78
2022/01/20 01:12:33;;;;;;;3.33;3.03;;;3.00;99.90;2.00;98546;;;;600330;237;24050;-78
2022/01/20 01:14:51;;;;;;;7.20;3.43;;;3.00;99.90;2.10;98531;;;;600745;237;24035;-78
2022/01/20 01:20:02;;;;;;;4.07;2.43;;;3.10;99.90;2.10;98541;;;;593143;237;25078;-77
2022/01/20 01:24:49;;;;;;;2.10;1.97;;;3.10;99.90;2.10;98542;;;;594505;236;24012;-77
2022/01/20 01:27:18;;;;;;;3.53;1.07;;;3.10;99.90;2.10;98557;;;;592186;237;24086;-77
2022/01/20 01:33:11;;;;;;;4.83;1.90;;;2.70;99.90;1.70;98517;;;;604327;237;24033;-79
2022/01/20 01:34:54;;;;;;;4.90;1.27;;;2.70;99.90;1.40;98521;;;;599522;237;24109;-77
2022/01/20 01:38:22;;;;;;;3.50;1.43;;;2.50;99.90;1.20;98519;;;;595038;237;24119;-77
2022/01/20 01:39:52;;;;;;;4.40;1.43;;;2.10;99.90;1.10;98505;;;;601118;237;24052;-77
2022/01/20 01:42:26;;;;;;;11.70;2.77;;;2.10;99.90;1.00;98508;;;;600330;237;24054;-77
2022/01/20 01:44:48;;;;;;;3.03;1.23;;;2.00;99.90;1.00;98498;;;;592004;237;25117;-78
2022/01/20 01:47:16;;;;;;;11.27;1.40;;;2.00;99.90;1.10;98500;;;;589735;243;24078;-78
2022/01/20 01:49:44;;;;;;;3.50;1.67;;;2.00;99.90;1.10;98510;;;;590201;243;24083;-78
2022/01/20 01:52:13;;;;;;;4.87;1.63;;;2.10;99.90;1.20;98500;;;;589793;243;24052;-77
2022/01/20 01:54:41;;;;;;;4.90;1.00;;;2.10;99.90;1.20;98487;;;;590055;241;24070;-77
2022/01/20 01:57:09;;;;;;;4.83;2.10;;;2.20;99.90;1.20;98509;;;;589652;243;24065;-78
2022/01/20 01:59:36;;;;;;;3.43;1.30;;;2.20;99.90;1.20;98500;;;;590961;241;24054;-78
2022/01/20 02:02:04;;;;;;;10.67;1.63;;;2.20;99.90;1.20;98497;;;;590606;240;24100;-79
2022/01/20 02:04:33;;;;;;;6.77;2.20;;;2.20;99.90;1.30;98504;;;;590771;243;24113;-79
2022/01/20 02:18:12;;;;;;;6.33;1.03;;;2.40;99.90;1.40;98483;;;;580724;243;24125;-79
2022/01/20 02:20:29;;;;;;;7.97;1.67;;;2.40;99.90;1.40;98486;;;;591085;238;24041;-80
2022/01/20 02:22:54;;;;;;;2.93;0.97;;;2.40;99.90;1.50;98473;;;;583806;242;25264;-79
2022/01/20 02:25:22;;;;;;;12.30;1.70;;;2.50;99.90;1.50;98471;;;;580889;243;24083;-80
2022/01/20 02:27:54;;;;;;;15.27;1.87;;;2.50;99.90;1.60;98477;;;;580779;243;24165;-79
2022/01/20 02:30:21;;;;;;;1.63;1.00;;;2.60;99.90;1.60;98469;;;;580283;243;24085;-79
2022/01/20 02:32:53;;;;;;;8.57;1.03;;;2.60;99.90;1.60;98468;;;;578549;242;24080;-79
2022/01/20 02:35:21;;;;;;;2.50;0.67;;;2.60;99.90;1.60;98458;;;;580251;244;24084;-78
2022/01/20 02:37:57;;;;;;;5.30;1.37;;;2.60;99.90;1.50;98465;;;;580502;244;24074;-79
2022/01/20 02:45:41;;;;;;;9.70;1.60;;;2.30;99.90;1.30;98442;;;;570815;251;25150;-80
2022/01/20 02:48:09;;;;;;;6.30;1.43;;;2.30;99.90;1.20;98465;;;;589826;243;24076;-79
2022/01/20 02:50:37;;;;;;;2.43;0.90;;;2.20;99.90;1.20;98450;;;;580751;244;24110;-78
2022/01/20 02:53:06;;;;;;;2.37;1.27;;;2.10;99.90;1.10;98459;;;;589773;243;24111;-79
2022/01/20 02:55:35;;;;;;;5.80;2.30;;;2.00;99.90;1.00;98455;;;;580729;244;24068;-79
2022/01/20 02:58:06;;;;;;;7.27;1.13;;;2.00;99.90;1.00;98461;;;;589715;243;24093;-79
2022/01/20 03:00:31;;;;;;;0.80;0.80;;;2.00;99.90;0.90;98464;;;;580637;244;24111;-79
2022/01/20 03:02:58;;;;;;;0.97;0.80;;;1.90;99.90;0.90;98451;;;;580233;244;24051;-79
2022/01/20 03:05:27;;;;;;;3.43;0.80;;;1.90;99.90;1.00;98465;;;;580760;244;25098;-79
2022/01/20 03:07:54;;;;;;;4.87;1.53;;;2.00;99.90;1.00;98464;;;;580731;244;24091;-78
2022/01/20 03:10:23;;;;;;;2.33;1.10;;;2.00;99.90;1.00;98466;;;;581525;243;24074;-79
2022/01/20 03:12:51;;;;;;;9.73;1.37;;;2.00;99.90;1.10;98450;;;;581480;243;24046;-79
2022/01/20 03:15:23;;;;;;;10.20;1.07;;;2.10;99.90;1.10;98465;;;;581666;243;24123;-79
2022/01/20 03:17:47;;;;;;;6.40;1.03;;;2.10;99.90;1.00;98451;;;;580854;243;24057;-81
2022/01/20 03:20:15;;;;;;;4.13;1.33;;;2.10;99.90;1.00;98449;;;;580977;243;24065;-80
2022/01/20 03:22:43;;;;;;;0.60;0.60;;;2.10;99.90;0.80;98457;;;;580953;243;24125;-79
2022/01/20 03:25:11;;;;;;;6.73;1.50;;;2.00;99.90;0.80;98439;;;;580903;243;24087;-80
2022/01/20 03:27:39;;;;;;;10.47;1.20;;;1.90;99.90;0.60;98447;;;;589963;240;24052;-79
2022/01/20 03:30:07;;;;;;;5.40;1.13;;;1.70;99.90;0.50;98439;;;;580724;243;24048;-80
2022/01/20 03:32:35;;;;;;;8.33;1.77;;;1.60;99.90;0.40;98450;;;;580630;243;25189;-80
2022/01/20 03:35:04;;;;;;;5.10;1.13;;;1.50;99.90;0.40;98451;;;;588020;234;24062;-78
2022/01/20 03:37:32;;;;;;;5.17;1.43;;;1.50;99.90;0.40;98459;;;;594228;238;24039;-79
2022/01/20 03:40:00;;;;;;;3.40;0.77;;;1.50;99.90;0.40;98450;;;;603877;238;24066;-80
2022/01/20 03:42:28;;;;;;;2.60;1.20;;;1.50;99.90;0.40;98454;;;;594296;238;24029;-78
2022/01/20 03:44:57;;;;;;;7.43;1.07;;;1.60;99.90;0.50;98443;;;;603771;238;24100;-79
2022/01/20 03:47:25;;;;;;;7.67;1.63;;;1.60;99.90;0.60;98449;;;;603477;238;24075;-78
2022/01/20 03:52:20;;;;;;;0.80;0.80;;;1.70;99.90;0.70;98472;;;;592426;238;24118;-78
2022/01/20 03:54:48;;;;;;;10.13;1.10;;;1.80;99.90;0.80;98471;;;;603456;238;24090;-79
2022/01/20 03:57:17;;;;;;;9.87;1.37;;;1.90;99.90;0.80;98466;;;;603538;238;24087;-80
2022/01/20 03:59:45;;;;;;;12.63;0.93;;;1.90;99.90;0.80;98469;;;;594040;238;24080;-78
2022/01/20 04:02:13;;;;;;;4.80;1.07;;;1.90;99.90;0.80;98469;;;;601358;238;24072;-79
2022/01/20 04:04:41;;;;;;;1.43;1.00;;;1.90;99.90;0.80;98459;;;;603825;238;24092;-79
2022/01/20 04:07:09;;;;;;;4.03;0.90;;;1.90;99.90;0.70;98473;;;;603854;238;24040;-78
2022/01/20 04:09:37;;;;;;;4.50;1.00;;;1.80;99.90;0.50;98457;;;;594337;238;24077;-79
2022/01/20 04:12:04;;;;;;;4.37;0.90;;;1.70;99.90;0.20;98455;;;;603332;238;24096;-79
2022/01/20 04:14:34;;;;;;;0.73;0.60;;;1.20;99.90;0.00;98449;;;;603677;238;24028;-79
2022/01/20 04:17:04;;;;;;;4.90;1.23;;;1.20;99.90;-0.10;98453;;;;603385;238;24041;-79
2022/01/20 04:19:32;;;;;;;10.47;1.43;;;1.10;99.90;-0.20;98445;;;;593940;238;24048;-79
2022/01/20 04:21:57;;;;;;;12.13;1.10;;;1.00;99.90;-0.20;98445;;;;594080;239;24038;-79
2022/01/20 04:24:28;;;;;;;2.67;0.90;;;1.00;99.90;-0.10;98451;;;;592130;241;24146;-80
2022/01/20 04:26:53;;;;;;;3.47;1.13;;;1.00;99.90;-0.10;98459;;;;582810;243;24130;-79
2022/01/20 04:29:21;;;;;;;3.10;0.40;;;1.00;99.90;-0.10;98457;;;;591933;241;24110;-81
2022/01/20 04:31:50;;;;;;;4.53;0.63;;;1.00;99.90;-0.10;98451;;;;591525;242;24109;-80
2022/01/20 04:34:17;;;;;;;1.30;0.83;;;1.10;99.90;-0.10;98452;;;;582549;243;24123;-79
2022/01/20 04:36:47;;;;;;;1.17;0.93;;;1.00;99.90;-0.10;98459;;;;591546;241;24134;-81
2022/01/20 04:39:15;;;;;;;7.47;0.93;;;1.00;99.90;-0.20;98462;;;;588683;243;24052;-81
2022/01/20 04:41:41;;;;;;;6.07;1.40;;;1.00;99.90;-0.20;98470;;;;582141;243;24114;-78
2022/01/20 04:44:14;;;;;;;5.17;0.60;;;0.90;99.90;-0.30;98457;;;;587294;243;24080;-80
2022/01/20 04:46:44;;;;;;;8.23;1.37;;;0.90;99.90;-0.30;98447;;;;582492;243;24100;-80
2022/01/20 04:57:23;;;;;;;9.23;1.37;;;0.70;99.90;-0.40;98457;;;;588699;239;34944;-81
2022/01/20 04:59:51;;;;;;;2.37;0.93;;;0.70;99.90;-0.50;98455;;;;590503;240;24123;-82
2022/01/20 05:02:20;;;;;;;6.63;1.27;;;0.70;99.90;-0.50;98460;;;;590416;240;24076;-80
2022/01/20 05:04:48;;;;;;;2.97;1.17;;;0.70;99.90;-0.50;98449;;;;598944;239;24063;-80
2022/01/20 05:07:21;;;;;;;2.93;0.40;;;0.70;99.90;-0.50;98446;;;;590690;237;24075;-79
2022/01/20 05:09:43;;;;;;;0.47;0.47;;;0.70;99.90;-0.50;98471;;;;595138;237;24032;-80
2022/01/20 05:12:16;;;;;;;0.50;0.50;;;0.60;99.90;-0.50;98464;;;;595638;237;24022;-80
2022/01/20 05:14:40;;;;;;;6.70;0.60;;;0.60;99.90;-0.60;98460;;;;595925;237;24092;-80
2022/01/20 05:17:12;;;;;;;0.33;0.33;;;0.60;99.90;-0.60;98456;;;;595929;237;24078;-81
2022/01/20 05:19:36;;;;;;;1.87;0.37;;;0.50;99.90;-0.60;98449;;;;595464;237;24049;-80
2022/01/20 05:22:04;;;;;;;0.90;0.90;;;0.50;99.90;-0.70;98442;;;;595960;237;24025;-79
2022/01/20 05:24:32;;;;;;;2.20;0.47;;;0.40;99.90;-0.80;98442;;;;605450;233;24033;-80
2022/01/20 05:27:02;;;;;;;0.87;0.60;;;0.30;99.90;-1.00;98431;;;;596051;237;24094;-79
2022/01/20 05:29:27;;;;;;;0.30;0.30;;;0.20;99.90;-1.10;98437;;;;593696;239;24096;-81
2022/01/20 05:31:56;;;;;;;0.23;0.23;;;0.00;99.90;-1.20;98423;;;;600747;239;24015;-81
2022/01/20 05:34:24;;;;;;;0.50;0.50;;;-0.10;99.90;-1.20;98434;;;;598032;239;24070;-81
2022/01/20 05:36:52;;;;;;;3.40;0.50;;;-0.10;99.90;-1.30;98432;;;;601952;238;24033;-80
2022/01/20 05:39:20;;;;;;;5.13;0.53;;;-0.20;99.90;-1.30;98436;;;;601694;237;24017;-79
2022/01/20 05:41:49;;;;;;;4.75;1.23;;;-0.20;99.90;-1.30;98435;;;;596291;238;34987;-79
2022/01/20 05:44:16;;;;;;;3.00;1.03;;;-0.20;99.90;-1.20;98437;;;;601274;239;25113;-80
2022/01/20 05:46:48;;;;;;;2.97;0.90;;;-0.10;99.90;-1.20;98434;;;;601444;239;24107;-79
2022/01/20 05:49:20;;;;;;;2.87;0.73;;;-0.10;99.90;-1.10;98430;;;;601185;239;25120;-80
2022/01/20 05:51:43;;;;;;;1.90;1.43;;;0.00;99.90;-1.00;98449;;;;595233;239;24029;-81
2022/01/20 05:54:08;;;;;;;0.50;0.40;;;0.10;99.90;-1.00;98438;;;;600876;239;24190;-81
2022/01/20 05:56:36;;;;;;;7.63;1.10;;;0.10;99.90;-0.90;98451;;;;594713;239;24066;-80
2022/01/20 05:59:05;;;;;;;0.40;0.40;;;0.20;99.90;-0.90;98462;;;;591865;239;24052;-80
2022/01/20 06:01:36;;;;;;;4.07;0.70;;;0.20;99.90;-0.90;98442;;;;585007;242;24115;-80
2022/01/20 06:04:00;;;;;;;3.33;1.03;;;0.20;99.90;-0.90;98444;;;;585073;240;24180;-80
2022/01/20 06:06:28;;;;;;;0.77;0.63;;;0.20;99.90;-1.00;98434;;;;582813;244;24131;-79
2022/01/20 06:09:01;;;;;;;1.67;0.93;;;0.10;99.90;-1.00;98430;;;;586975;244;24069;-80
2022/01/20 06:11:25;;;;;;;0.83;0.43;;;0.10;99.90;-1.10;98421;;;;577584;242;24041;-79
2022/01/20 06:13:53;;;;;;;10.60;1.50;;;0.00;99.90;-1.10;98417;;;;591117;239;24110;-79
2022/01/20 06:16:21;;;;;;;0.53;0.50;;;0.00;99.90;-1.10;98415;;;;591446;239;24008;-81
2022/01/20 06:18:49;;;;;;;2.77;0.93;;;0.00;99.90;-1.10;98408;;;;591450;239;24088;-79
2022/01/20 06:21:17;;;;;;;6.47;0.70;;;0.00;99.90;-1.10;98419;;;;591454;239;24062;-80
2022/01/20 06:23:45;;;;;;;1.23;0.80;;;0.00;99.90;-1.20;98411;;;;591505;239;24085;-80
2022/01/20 06:26:13;;;;;;;1.03;0.87;;;-0.10;99.90;-1.20;98399;;;;590767;238;24093;-80
2022/01/20 06:28:41;;;;;;;0.83;0.60;;;-0.10;99.90;-1.20;98409;;;;591046;232;24084;-80
2022/01/20 06:31:12;;;;;;;2.80;1.03;;;-0.10;99.90;-1.20;98412;;;;595458;235;24093;-81
2022/01/20 06:33:41;;;;;;;1.40;0.80;;;0.00;99.90;-1.10;98430;;;;588500;242;25191;-81
2022/01/20 06:36:08;;;;;;;1.00;0.43;;;0.00;99.90;-1.10;98462;;;;585485;238;24135;-79
2022/01/20 06:38:37;;;;;;;3.27;0.50;;;0.00;99.90;-1.10;98468;;;;594781;237;24035;-79
2022/01/20 06:41:01;;;;;;;1.40;1.23;;;0.10;99.90;-1.10;98471;;;;595118;237;24028;-80
2022/01/20 06:43:29;;;;;;;0.20;0.20;;;0.00;99.90;-1.10;98476;;;;586684;241;25144;-80
2022/01/20 06:45:57;;;;;;;0.17;0.17;;;0.00;99.90;-1.20;98468;;;;590759;237;27283;-80
2022/01/20 06:48:25;;;;;;;0.40;0.40;;;-0.10;99.90;-1.20;98478;;;;591883;232;23988;-79
2022/01/20 06:50:54;;;;;;;3.83;1.07;;;-0.10;99.90;-1.20;98477;;;;584105;242;24093;-79
2022/01/20 06:53:22;;;;;;;0.20;0.20;;;-0.10;99.90;-1.20;98488;;;;591439;242;24095;-80
2022/01/20 06:55:49;;;;;;;0.20;0.20;;;-0.10;99.90;-1.20;98490;;;;591289;242;24081;-79
2022/01/20 06:58:17;;;;;;;0.17;0.17;;;-0.10;99.90;-1.20;98488;;;;591253;242;24102;-79
2022/01/20 07:00:46;;;;;;;0.90;0.80;;;-0.10;99.90;-1.20;98485;;;;594002;235;34775;-81
2022/01/20 07:03:18;;;;;;;0.73;0.73;;;-0.10;99.90;-1.10;98488;;;;596256;239;24066;-79
2022/01/20 07:05:43;;;;;;;0.10;0.10;;;-0.10;99.90;-1.20;98487;;;;595939;233;24053;-80
2022/01/20 07:08:13;;;;;;;1.43;1.17;;;-0.10;99.90;-1.20;98495;;;;590869;237;24089;-80
2022/01/20 07:10:38;;;;;;;0.10;0.10;;;-0.10;99.90;-1.20;98498;;;;588618;238;24083;-81
2022/01/20 07:13:06;;;;;;;0.10;0.10;;;-0.10;99.90;-1.20;98507;;;;596695;233;24046;-81
2022/01/20 07:15:34;;;;;;;0.30;0.30;;;-0.10;99.90;-1.20;98519;;;;597097;237;24001;-80
2022/01/20 07:18:02;;;;;;;0.20;0.20;;;-0.10;99.90;-1.20;98538;;;;592984;241;24103;-81
2022/01/20 07:20:31;;;;;;;0.07;0.07;;;-0.10;99.90;-1.10;98536;;;;584289;242;24235;-81
2022/01/20 07:22:58;;;;;;;0.03;0.03;;;-0.10;99.90;-1.20;98535;;;;583923;242;24055;-81
2022/01/20 07:25:26;;;;;;;0.20;0.20;;;-0.10;99.90;-1.20;98542;;;;594291;241;24113;-83
2022/01/20 07:27:54;;;;;;;0.20;0.20;;;-0.10;99.90;-1.20;98557;;;;590466;238;24131;-81
2022/01/20 07:30:22;;;;;;;0.37;0.20;;;-0.20;99.90;-1.30;98552;;;;590084;238;24027;-82
2022/01/20 07:32:50;;;;;;;0.37;0.37;;;-0.20;99.90;-1.30;98554;;;;594442;237;24065;-81
2022/01/20 07:35:18;;;;;;;1.40;0.60;;;-0.20;99.90;-1.30;98543;;;;587961;238;34804;-82
2022/01/20 07:37:49;;;;;;;0.20;0.20;;;-0.30;99.90;-1.40;98545;;;;583210;239;24151;-81
2022/01/20 07:40:17;;;;;;;0.30;0.30;;;-0.30;99.90;-1.40;98549;;;;582723;243;24065;-82
2022/01/20 07:42:41;;;;;;;0.30;0.30;;;-0.40;99.90;-1.50;98550;;;;582640;243;24088;-83
2022/01/20 07:45:09;;;;;;;3.20;0.80;;;-0.40;99.90;-1.50;98553;;;;583081;243;24142;-83
2022/01/20 07:47:37;;;;;;;0.47;0.47;;;-0.50;99.90;-1.50;98556;;;;587106;243;35060;-81
2022/01/20 07:50:05;;;;;;;0.20;0.20;;;-0.50;99.90;-1.60;98570;;;;583319;243;24123;-84
2022/01/20 07:52:33;;;;;;;0.23;0.23;;;-0.60;99.90;-1.50;98565;;;;589339;235;24086;-83
2022/01/20 07:55:01;;;;;;;0.10;0.10;;;-0.50;99.90;-1.50;98570;;;;600048;235;24137;-87
2022/01/20 07:57:30;;;;;;;0.10;0.10;;;-0.40;99.90;-1.40;98585;;;;596664;236;24040;-88
2022/01/20 07:59:57;;;;;;;0.10;0.10;;;-0.40;99.90;-1.50;98588;;;;607335;236;24045;-83
2022/01/20 08:02:25;;;;;;;0.00;0.00;;;-0.40;99.90;-1.50;98587;;;;603006;235;24086;-85
2022/01/20 08:04:53;;;;;;;0.10;0.10;;;-0.50;99.90;-1.50;98580;;;;606529;236;24046;-84
2022/01/20 08:07:21;;;;;;;0.10;0.10;;;-0.50;99.90;-1.60;98594;;;;606793;236;24078;-84
2022/01/20 08:09:54;;;;;;;0.50;0.50;;;-0.60;99.90;-1.70;98596;;;;603086;237;24034;-85
2022/01/20 08:12:17;;;;;;;0.20;0.20;;;-0.70;99.90;-1.80;98609;;;;603547;237;24054;-83
2022/01/20 08:14:45;;;;;;;0.10;0.10;;;-0.80;99.90;-1.80;98596;;;;606540;237;24086;-82
2022/01/20 08:17:13;;;;;;;0.10;0.10;;;-0.90;99.90;-1.90;98593;;;;604653;237;24000;-80
2022/01/20 08:19:44;;;;;;;0.57;0.57;;;-1.00;99.90;-1.90;98603;;;;581154;243;24107;-84
2022/01/20 08:22:09;;;;;;;0.13;0.13;;;-1.00;99.90;-1.90;98601;;;;596930;238;24054;-82
2022/01/20 08:24:37;;;;;;;0.30;0.30;;;-1.00;99.90;-2.00;98597;;;;596486;239;24084;-82
2022/01/20 08:27:05;;;;;;;0.30;0.30;;;-1.00;99.90;-2.00;98593;;;;594497;237;24043;-81
2022/01/20 08:29:32;;;;;;;0.10;0.10;;;-1.10;99.90;-2.00;98593;;;;593266;239;24061;-81
2022/01/20 08:32:00;;;;;;;0.83;0.27;;;-1.10;99.90;-2.00;98591;;;;587385;239;24096;-80
2022/01/20 08:34:28;;;;;;;0.20;0.20;;;-1.10;99.90;-1.90;98598;;;;594818;237;24033;-80
2022/01/20 08:36:59;;;;;;;3.80;0.50;;;-1.00;99.90;-1.90;98589;;;;607047;233;24018;-82
2022/01/20 08:42:04;;;;;;;0.10;0.10;;;-1.00;99.90;-1.80;98585;;;;592503;239;24051;-80
2022/01/20 08:44:32;;;;;;;0.20;0.20;;;-0.90;99.90;-1.70;98593;;;;589450;242;24104;-80
2022/01/20 08:47:01;;;;;;;0.37;0.13;;;-0.80;99.90;-1.70;98594;;;;590838;242;24106;-81
2022/01/20 08:49:28;;;;;;;0.20;0.20;;;-0.70;99.90;-1.70;98591;;;;592098;241;24038;-81
2022/01/20 08:51:56;;;;;;;0.10;0.10;;;-0.80;99.90;-1.80;98595;;;;605760;233;25066;-81
2022/01/20 08:54:25;;;;;;;0.50;0.50;;;-0.90;99.90;-1.80;98596;;;;587006;241;24068;-82
2022/01/20 08:56:53;;;;;;;0.10;0.10;;;-0.90;99.90;-1.90;98598;;;;582966;243;24098;-81
2022/01/20 08:59:24;;;;;;;0.37;0.37;;;-1.00;99.90;-1.90;98604;;;;598598;236;24080;-81
2022/01/20 09:01:49;;;;;;;0.10;0.10;;;-1.10;99.90;-1.90;98590;;;;596611;236;24059;-81
2022/01/20 09:04:17;;;;;;;0.20;0.20;;;-1.00;99.90;-1.90;98597;;;;604630;237;24064;-80
2022/01/20 09:06:45;;;;;;;0.10;0.10;;;-1.00;99.90;-1.80;98602;;;;604915;237;24079;-81
2022/01/20 09:09:16;;;;;;;0.10;0.10;;;-0.90;99.90;-1.70;98614;;;;603981;234;24036;-81
2022/01/20 09:11:51;;;;;;;0.10;0.10;;;-0.80;99.90;-1.40;98621;;;;591923;239;24117;-81
2022/01/20 09:16:54;;;;;;;0.00;0.00;;;-0.10;99.90;-0.90;98629;;;;608224;233;24001;-81
2022/01/20 09:19:22;;;;;;;0.50;0.50;;;0.20;99.90;-0.80;98628;;;;601459;233;24095;-81
2022/01/20 09:21:50;;;;;;;0.20;0.20;;;0.30;99.90;-0.70;98631;;;;608121;233;24049;-81
2022/01/20 09:24:18;;;;;;;0.37;0.20;;;0.40;99.90;-0.60;98626;;;;598282;237;24050;-81
2022/01/20 09:26:46;;;;;;;0.23;0.23;;;0.50;99.90;-0.50;98625;;;;605624;237;24016;-83
2022/01/20 09:29:18;;;;;;;0.83;0.67;;;0.50;99.90;-0.50;98624;;;;599633;237;24033;-80
2022/01/20 09:31:42;;;;;;;0.20;0.20;;;0.60;99.90;-0.50;98626;;;;592061;233;25081;-83
2022/01/20 09:34:10;;;;;;;0.97;0.60;;;0.60;99.90;-0.60;98639;;;;591163;237;24099;-80
2022/01/20 09:36:38;;;;;;;0.10;0.10;;;0.50;99.90;-0.80;98633;;;;600698;238;24124;-81
2022/01/20 09:39:06;;;;;;;0.10;0.10;;;0.40;99.90;-0.90;98635;;;;594022;238;24015;-83
2022/01/20 09:41:33;;;;;;;0.20;0.20;;;0.20;99.90;-0.90;98657;;;;603398;238;24077;-82
2022/01/20 09:44:01;;;;;;;0.10;0.10;;;0.10;99.90;-1.00;98646;;;;596432;239;24031;-82
2022/01/20 09:46:29;;;;;;;0.37;0.37;;;0.00;99.90;-1.20;98623;;;;591961;239;24025;-83
2022/01/20 09:49:00;;;;;;;0.10;0.10;;;-0.10;99.90;-1.30;98644;;;;595928;239;24015;-82
2022/01/20 09:51:25;;;;;;;0.30;0.30;;;-0.30;99.90;-1.50;98625;;;;595958;239;24066;-81
2022/01/20 09:53:56;;;;;;;0.50;0.50;;;-0.50;99.90;-1.60;98630;;;;593230;238;24083;-82
2022/01/20 09:56:21;;;;;;;0.10;0.10;;;-0.60;99.90;-1.60;98626;;;;590163;238;24104;-81
2022/01/20 09:58:49;;;;;;;0.10;0.10;;;-0.70;99.90;-1.70;98639;;;;593424;238;25160;-80
2022/01/20 10:01:17;;;;;;;0.10;0.10;;;-0.80;99.90;-1.80;98636;;;;604065;233;24132;-81
2022/01/20 10:03:47;;;;;;;0.20;0.20;;;-0.80;99.90;-1.70;98631;;;;593377;240;24110;-79
2022/01/20 10:06:15;;;;;;;0.00;0.00;;;-0.80;99.90;-1.60;98646;;;;593238;242;24056;-82
2022/01/20 10:08:43;;;;;;;0.10;0.10;;;-0.70;99.90;-1.60;98647;;;;585740;237;24067;-82
2022/01/20 10:11:11;;;;;;;0.35;0.35;;;-0.70;99.90;-1.70;98657;;;;589169;237;34789;-81
2022/01/20 10:13:39;;;;;;;0.30;0.30;;;-0.70;99.90;-1.70;98649;;;;595943;236;24029;-83
2022/01/20 10:16:12;;;;;;;0.10;0.10;;;-0.80;99.90;-1.60;98658;;;;596565;236;24126;-81
2022/01/20 10:18:57;;;;;;;0.40;0.40;;;-0.70;99.90;-1.50;98653;;;;599817;231;24153;-79
2022/01/20 10:21:27;;;;;;;0.67;0.67;;;-0.50;99.90;-1.50;98656;;;;607435;233;24038;-79
2022/01/20 10:23:55;;;;;;;0.20;0.20;;;-0.50;99.90;-1.50;98641;;;;598009;232;24078;-79
2022/01/20 10:26:27;;;;;;;0.10;0.10;;;-0.50;99.90;-1.40;98656;;;;601353;233;24051;-80
2022/01/20 10:29:05;;;;;;;1.48;0.90;;;-0.50;99.90;-1.30;98647;;;;585188;237;34923;-81
2022/01/20 10:31:51;;;;;;;0.00;0.00;;;-0.30;99.90;-1.20;98652;;;;594298;237;24072;-80
2022/01/20 10:34:35;;;;;;;0.20;0.20;;;-0.20;99.90;-1.20;98652;;;;588489;242;24043;-79
2022/01/20 10:36:51;;;;;;;0.10;0.10;;;-0.20;99.90;-1.30;98645;;;;581591;243;24127;-80
2022/01/20 10:39:19;;;;;;;0.00;0.00;;;-0.30;99.90;-1.40;98656;;;;591000;239;24191;-80
2022/01/20 10:41:47;;;;;;;0.20;0.20;;;-0.40;99.90;-1.30;98653;;;;591651;239;24057;-81
2022/01/20 10:44:17;;;;;;;0.30;0.10;;;-0.40;99.90;-1.00;98652;;;;598549;238;24064;-81
2022/01/20 10:46:52;;;;;;;0.73;0.20;;;0.30;99.90;-0.60;98668;;;;594459;238;24108;-81
2022/01/20 10:49:21;;;;;;;0.30;0.30;;;0.30;99.90;-0.60;98663;;;;597034;237;25120;-81
2022/01/20 10:51:57;;;;;;;0.63;0.63;;;0.50;99.90;-0.70;98676;;;;596629;237;24061;-78
2022/01/20 10:54:25;;;;;;;0.30;0.17;;;0.40;99.90;-0.80;98676;;;;588007;239;24042;-81
2022/01/20 10:56:55;;;;;;;0.00;0.00;;;0.30;99.90;-0.90;98664;;;;591305;239;24038;-81
2022/01/20 10:59:23;;;;;;;0.10;0.10;;;0.20;99.90;-0.90;98661;;;;600482;233;24080;-80
2022/01/20 11:02:09;;;;;;;0.30;0.30;;;0.20;99.90;-0.90;98658;;;;588935;237;24115;-81
2022/01/20 11:04:38;;;;;;;0.30;0.30;;;0.20;99.90;-1.00;98656;;;;592554;237;24036;-80
2022/01/20 11:07:07;;;;;;;0.10;0.10;;;0.10;99.90;-1.00;98673;;;;584914;238;24054;-79
2022/01/20 11:09:35;;;;;;;0.10;0.10;;;0.00;99.90;-1.00;98665;;;;581160;243;24046;-79
2022/01/20 11:12:03;;;;;;;0.10;0.10;;;0.10;99.90;-1.20;98669;;;;585801;238;24086;-79
2022/01/20 11:14:31;;;;;;;0.10;0.10;;;-0.10;99.90;-1.30;98667;;;;598658;233;23998;-80
2022/01/20 11:17:02;;;;;;;0.17;0.17;;;-0.20;99.90;-1.50;98655;;;;604641;233;24033;-79
2022/01/20 11:19:31;;;;;;;0.10;0.10;;;-0.40;99.90;-1.50;98664;;;;590498;238;24024;-80
2022/01/20 11:21:55;;;;;;;3.40;0.40;;;-0.80;99.90;-1.70;98654;;;;587636;237;24011;-81
2022/01/20 11:24:23;;;;;;;0.53;0.43;;;-0.80;99.90;-1.80;98646;;;;596271;237;24047;-81
2022/01/20 11:26:54;;;;;;;0.30;0.30;;;-0.90;99.90;-1.90;98649;;;;596541;237;25070;-80
2022/01/20 11:29:25;;;;;;;0.90;0.80;;;-1.00;99.90;-2.00;98644;;;;576738;238;34954;-81
2022/01/20 11:31:50;;;;;;;1.60;0.93;;;-1.10;99.90;-2.00;98638;;;;587431;239;24112;-82
2022/01/20 11:34:20;;;;;;;2.97;0.20;;;-1.20;99.90;-2.10;98650;;;;590678;241;24098;-81
2022/01/20 11:36:46;;;;;;;0.67;0.43;;;-1.30;99.90;-2.20;98638;;;;590042;237;24067;-82
2022/01/20 11:39:14;;;;;;;1.27;0.30;;;-1.30;99.90;-2.20;98639;;;;591647;238;24113;-81
2022/01/20 11:41:46;;;;;;;0.20;0.20;;;-1.40;99.90;-2.10;98654;;;;600818;239;24044;-82
2022/01/20 11:44:12;;;;;;;0.30;0.30;;;-1.30;99.90;-2.00;98667;;;;593151;238;25156;-82
2022/01/20 11:46:43;;;;;;;0.60;0.60;;;-1.00;99.90;-1.90;98669;;;;594102;238;24039;-82
2022/01/20 11:49:09;;;;;;;0.30;0.30;;;-1.00;99.90;-1.80;98675;;;;596279;237;24057;-80
2022/01/20 11:51:48;;;;;;;0.70;0.60;;;-0.90;99.90;-1.80;98690;;;;605394;237;24126;-80
2022/01/20 11:54:34;;;;;;;2.37;0.97;;;-0.80;99.90;-1.70;98698;;;;595595;237;24026;-83
2022/01/20 11:57:20;;;;;;;0.10;0.10;;;-0.70;99.90;-1.60;98695;;;;594940;236;24054;-82
2022/01/20 11:59:48;;;;;;;0.17;0.17;;;-0.60;99.90;-1.50;98703;;;;600857;238;24019;-82
2022/01/20 12:02:33;;;;;;;0.20;0.20;;;-0.60;99.90;-1.60;98695;;;;599744;233;24105;-82
2022/01/20 12:05:01;;;;;;;0.20;0.20;;;-0.60;99.90;-1.60;98694;;;;596244;237;24103;-85
2022/01/20 12:07:32;;;;;;;0.30;0.30;;;-0.70;99.90;-1.70;98699;;;;597876;233;24085;-83
2022/01/20 12:10:15;;;;;;;0.20;0.20;;;-0.80;99.90;-1.70;98694;;;;606840;233;24045;-83
2022/01/20 12:12:43;;;;;;;0.43;0.43;;;-0.80;99.90;-1.60;98708;;;;591870;232;24052;-81
2022/01/20 12:15:20;;;;;;;0.20;0.20;;;-0.70;99.90;-1.70;98704;;;;598446;234;24044;-81
2022/01/20 12:17:52;;;;;;;0.40;0.40;;;-0.70;99.90;-1.70;98707;;;;595438;235;24058;-81
2022/01/20 12:20:22;;;;;;;0.07;0.07;;;-0.70;99.90;-1.60;98697;;;;584697;241;24049;-82
2022/01/20 12:22:47;;;;;;;0.00;0.00;;;-0.60;99.90;-1.50;98704;;;;595638;232;24024;-83
2022/01/20 12:25:21;;;;;;;1.05;0.80;;;-0.50;99.90;-1.40;98704;;;;590121;234;34938;-83
2022/01/20 12:27:49;;;;;;;0.87;0.40;;;-0.40;99.90;-1.30;98704;;;;596043;237;24123;-84
2022/01/20 12:30:17;;;;;;;0.40;0.40;;;-0.30;99.90;-1.40;98699;;;;594462;237;24109;-83
2022/01/20 12:32:45;;;;;;;3.40;0.43;;;-0.40;99.90;-1.50;98702;;;;601277;236;25078;-84